sensor_id;sensor_type;location;lat;lon;timestamp;temperature;humidity
17483;DHT22;8858;52.308;20.994;2024-03-07T00:00:44;6.00;99.90
17483;DHT22;8858;52.308;20.994;2024-03-07T00:03:12;5.90;99.90
17483;DHT22;8858;52.308;20.994;2024-03-07T00:05:41;6.00;99.90
17483;DHT22;8858;52.308;20.994;2024-03-07T00:08:12;6.00;99.90
17483;DHT22;8858;52.308;20.994;2024-03-07T00:10:42;5.90;99.90
17483;DHT22;8858;52.308;20.994;2024-03-07T00:13:11;5.90;99.90
17483;DHT22;8858;52.308;20.994;2024-03-07T00:15:40;5.90;99.90
17483;DHT22;8858;52.308;20.994;2024-03-07T00:18:08;5.80;99.90
17483;DHT22;8858;52.308;20.994;2024-03-07T00:20:41;5.80;99.90
17483;DHT22;8858;52.308;20.994;2024-03-07T00:23:10;5.80;99.90
17483;DHT22;8858;52.308;20.994;2024-03-07T00:25:39;5.70;99.90
17483;DHT22;8858;52.308;20.994;2024-03-07T00:28:09;5.70;99.90
17483;DHT22;8858;52.308;20.994;2024-03-07T00:30:37;5.70;99.90
17483;DHT22;8858;52.308;20.994;2024-03-07T00:33:06;5.60;99.90
17483;DHT22;8858;52.308;20.994;2024-03-07T00:35:35;5.60;99.90
17483;DHT22;8858;52.308;20.994;2024-03-07T00:38:03;5.50;99.90
17483;DHT22;8858;52.308;20.994;2024-03-07T00:40:32;5.50;99.90
17483;DHT22;8858;52.308;20.994;2024-03-07T00:43:02;5.40;99.90
17483;DHT22;8858;52.308;20.994;2024-03-07T00:45:32;5.40;99.90
17483;DHT22;8858;52.308;20.994;2024-03-07T00:48:03;5.30;99.90
17483;DHT22;8858;52.308;20.994;2024-03-07T00:50:32;5.30;99.90
17483;DHT22;8858;52.308;20.994;2024-03-07T00:53:01;5.30;99.90
17483;DHT22;8858;52.308;20.994;2024-03-07T00:55:29;5.20;99.90
17483;DHT22;8858;52.308;20.994;2024-03-07T00:57:57;5.10;99.90
17483;DHT22;8858;52.308;20.994;2024-03-07T01:00:25;5.10;99.90
17483;DHT22;8858;52.308;20.994;2024-03-07T01:02:56;5.00;99.90
17483;DHT22;8858;52.308;20.994;2024-03-07T01:05:25;5.00;99.90
17483;DHT22;8858;52.308;20.994;2024-03-07T01:07:53;4.90;99.90
17483;DHT22;8858;52.308;20.994;2024-03-07T01:10:22;4.90;99.90
17483;DHT22;8858;52.308;20.994;2024-03-07T01:12:52;4.80;99.90
17483;DHT22;8858;52.308;20.994;2024-03-07T01:15:25;4.70;99.90
17483;DHT22;8858;52.308;20.994;2024-03-07T01:17:53;4.70;99.90
17483;DHT22;8858;52.308;20.994;2024-03-07T01:20:23;4.60;99.90
17483;DHT22;8858;52.308;20.994;2024-03-07T01:22:53;4.60;99.90
17483;DHT22;8858;52.308;20.994;2024-03-07T01:25:28;4.60;99.90
17483;DHT22;8858;52.308;20.994;2024-03-07T01:28:01;4.50;99.90
17483;DHT22;8858;52.308;20.994;2024-03-07T01:30:33;4.50;99.90
17483;DHT22;8858;52.308;20.994;2024-03-07T01:33:03;4.40;99.90
17483;DHT22;8858;52.308;20.994;2024-03-07T01:35:33;4.30;99.90
17483;DHT22;8858;52.308;20.994;2024-03-07T01:38:03;4.20;99.90
17483;DHT22;8858;52.308;20.994;2024-03-07T01:40:32;4.20;99.90
17483;DHT22;8858;52.308;20.994;2024-03-07T01:43:03;4.20;99.90
17483;DHT22;8858;52.308;20.994;2024-03-07T01:45:33;4.10;99.90
17483;DHT22;8858;52.308;20.994;2024-03-07T01:48:06;4.00;99.90
17483;DHT22;8858;52.308;20.994;2024-03-07T01:50:37;4.00;99.90
17483;DHT22;8858;52.308;20.994;2024-03-07T01:53:06;3.90;99.90
17483;DHT22;8858;52.308;20.994;2024-03-07T01:55:39;3.90;99.90
17483;DHT22;8858;52.308;20.994;2024-03-07T01:58:08;3.90;99.90
17483;DHT22;8858;52.308;20.994;2024-03-07T02:00:39;3.90;99.90
17483;DHT22;8858;52.308;20.994;2024-03-07T02:03:08;3.90;99.90
17483;DHT22;8858;52.308;20.994;2024-03-07T02:05:37;3.80;99.90
17483;DHT22;8858;52.308;20.994;2024-03-07T02:08:06;3.80;99.90
17483;DHT22;8858;52.308;20.994;2024-03-07T02:10:58;3.80;99.90
17483;DHT22;8858;52.308;20.994;2024-03-07T02:13:28;3.70;99.90
17483;DHT22;8858;52.308;20.994;2024-03-07T02:15:59;3.70;99.90
17483;DHT22;8858;52.308;20.994;2024-03-07T02:18:32;3.60;99.90
17483;DHT22;8858;52.308;20.994;2024-03-07T02:21:07;3.60;99.90
17483;DHT22;8858;52.308;20.994;2024-03-07T02:23:38;3.60;99.90
17483;DHT22;8858;52.308;20.994;2024-03-07T02:26:09;3.50;99.90
17483;DHT22;8858;52.308;20.994;2024-03-07T02:28:37;3.50;99.90
17483;DHT22;8858;52.308;20.994;2024-03-07T02:31:06;3.50;99.90
17483;DHT22;8858;52.308;20.994;2024-03-07T02:33:34;3.40;99.90
17483;DHT22;8858;52.308;20.994;2024-03-07T02:36:03;3.40;99.90
17483;DHT22;8858;52.308;20.994;2024-03-07T02:38:36;3.40;99.90
17483;DHT22;8858;52.308;20.994;2024-03-07T02:41:05;3.30;99.90
17483;DHT22;8858;52.308;20.994;2024-03-07T02:43:33;3.30;99.90
17483;DHT22;8858;52.308;20.994;2024-03-07T02:46:07;3.20;99.90
17483;DHT22;8858;52.308;20.994;2024-03-07T02:48:38;3.20;99.90
17483;DHT22;8858;52.308;20.994;2024-03-07T02:51:08;3.10;99.90
17483;DHT22;8858;52.308;20.994;2024-03-07T02:53:38;3.10;99.90
17483;DHT22;8858;52.308;20.994;2024-03-07T02:56:07;3.00;99.90
17483;DHT22;8858;52.308;20.994;2024-03-07T02:58:37;3.00;99.90
17483;DHT22;8858;52.308;20.994;2024-03-07T03:01:06;2.90;99.90
17483;DHT22;8858;52.308;20.994;2024-03-07T03:03:34;2.90;99.90
17483;DHT22;8858;52.308;20.994;2024-03-07T03:06:03;2.90;99.90
17483;DHT22;8858;52.308;20.994;2024-03-07T03:08:32;2.80;99.90
17483;DHT22;8858;52.308;20.994;2024-03-07T03:11:06;2.80;99.90
17483;DHT22;8858;52.308;20.994;2024-03-07T03:13:37;2.80;99.90
17483;DHT22;8858;52.308;20.994;2024-03-07T03:16:06;2.70;99.90
17483;DHT22;8858;52.308;20.994;2024-03-07T03:18:36;2.70;99.90
17483;DHT22;8858;52.308;20.994;2024-03-07T03:21:09;2.60;99.90
17483;DHT22;8858;52.308;20.994;2024-03-07T03:23:37;2.60;99.90
17483;DHT22;8858;52.308;20.994;2024-03-07T03:26:07;2.60;99.90
17483;DHT22;8858;52.308;20.994;2024-03-07T03:28:35;2.50;99.90
17483;DHT22;8858;52.308;20.994;2024-03-07T03:31:04;2.50;99.90
17483;DHT22;8858;52.308;20.994;2024-03-07T03:33:32;2.50;99.90
17483;DHT22;8858;52.308;20.994;2024-03-07T03:36:00;2.50;99.90
17483;DHT22;8858;52.308;20.994;2024-03-07T03:38:29;2.50;99.90
17483;DHT22;8858;52.308;20.994;2024-03-07T03:40:58;2.40;99.90
17483;DHT22;8858;52.308;20.994;2024-03-07T03:43:28;2.50;99.90
17483;DHT22;8858;52.308;20.994;2024-03-07T03:45:57;2.40;99.90
17483;DHT22;8858;52.308;20.994;2024-03-07T03:48:28;2.40;99.90
17483;DHT22;8858;52.308;20.994;2024-03-07T03:50:56;2.40;99.90
17483;DHT22;8858;52.308;20.994;2024-03-07T03:53:25;2.30;99.90
17483;DHT22;8858;52.308;20.994;2024-03-07T03:55:53;2.30;99.90
17483;DHT22;8858;52.308;20.994;2024-03-07T03:58:22;2.30;99.90
17483;DHT22;8858;52.308;20.994;2024-03-07T04:00:51;2.30;99.90
17483;DHT22;8858;52.308;20.994;2024-03-07T04:03:20;2.30;99.90
17483;DHT22;8858;52.308;20.994;2024-03-07T04:05:51;2.30;99.90
17483;DHT22;8858;52.308;20.994;2024-03-07T04:08:20;2.30;99.90
17483;DHT22;8858;52.308;20.994;2024-03-07T04:10:48;2.30;99.90
17483;DHT22;8858;52.308;20.994;2024-03-07T04:13:17;2.20;99.90
17483;DHT22;8858;52.308;20.994;2024-03-07T04:15:46;2.30;99.90
17483;DHT22;8858;52.308;20.994;2024-03-07T04:18:19;2.20;99.90
17483;DHT22;8858;52.308;20.994;2024-03-07T04:20:47;2.20;99.90
17483;DHT22;8858;52.308;20.994;2024-03-07T04:23:17;2.20;99.90
17483;DHT22;8858;52.308;20.994;2024-03-07T04:25:50;2.10;99.90
17483;DHT22;8858;52.308;20.994;2024-03-07T04:28:20;2.10;99.90
17483;DHT22;8858;52.308;20.994;2024-03-07T04:30:49;2.10;99.90
17483;DHT22;8858;52.308;20.994;2024-03-07T04:33:21;2.10;99.90
17483;DHT22;8858;52.308;20.994;2024-03-07T04:35:50;2.10;99.90
17483;DHT22;8858;52.308;20.994;2024-03-07T04:38:21;2.00;99.90
17483;DHT22;8858;52.308;20.994;2024-03-07T04:40:50;2.10;99.90
17483;DHT22;8858;52.308;20.994;2024-03-07T04:43:19;2.00;99.90
17483;DHT22;8858;52.308;20.994;2024-03-07T04:45:48;2.00;99.90
17483;DHT22;8858;52.308;20.994;2024-03-07T04:48:16;2.10;99.90
17483;DHT22;8858;52.308;20.994;2024-03-07T04:50:49;2.00;99.90
17483;DHT22;8858;52.308;20.994;2024-03-07T04:53:17;2.00;99.90
17483;DHT22;8858;52.308;20.994;2024-03-07T04:55:47;2.00;99.90
17483;DHT22;8858;52.308;20.994;2024-03-07T04:58:15;2.00;99.90
17483;DHT22;8858;52.308;20.994;2024-03-07T05:00:44;2.00;99.90
17483;DHT22;8858;52.308;20.994;2024-03-07T05:03:12;1.90;99.90
17483;DHT22;8858;52.308;20.994;2024-03-07T05:05:40;1.90;99.90
17483;DHT22;8858;52.308;20.994;2024-03-07T05:08:13;1.90;99.90
17483;DHT22;8858;52.308;20.994;2024-03-07T05:10:42;1.90;99.90
17483;DHT22;8858;52.308;20.994;2024-03-07T05:13:10;1.90;99.90
17483;DHT22;8858;52.308;20.994;2024-03-07T05:15:39;1.90;99.90
17483;DHT22;8858;52.308;20.994;2024-03-07T05:18:07;1.90;99.90
17483;DHT22;8858;52.308;20.994;2024-03-07T05:20:43;1.90;99.90
17483;DHT22;8858;52.308;20.994;2024-03-07T05:23:12;1.90;99.90
17483;DHT22;8858;52.308;20.994;2024-03-07T05:25:43;1.90;99.90
17483;DHT22;8858;52.308;20.994;2024-03-07T05:28:13;1.80;99.90
17483;DHT22;8858;52.308;20.994;2024-03-07T05:30:42;1.90;99.90
17483;DHT22;8858;52.308;20.994;2024-03-07T05:33:11;1.80;99.90
17483;DHT22;8858;52.308;20.994;2024-03-07T05:35:40;1.80;99.90
17483;DHT22;8858;52.308;20.994;2024-03-07T05:38:12;1.80;99.90
17483;DHT22;8858;52.308;20.994;2024-03-07T05:40:41;1.80;99.90
17483;DHT22;8858;52.308;20.994;2024-03-07T05:43:10;1.80;99.90
17483;DHT22;8858;52.308;20.994;2024-03-07T05:45:40;1.80;99.90
17483;DHT22;8858;52.308;20.994;2024-03-07T05:48:14;1.80;99.90
17483;DHT22;8858;52.308;20.994;2024-03-07T05:50:45;1.80;99.90
17483;DHT22;8858;52.308;20.994;2024-03-07T05:53:15;1.80;99.90
17483;DHT22;8858;52.308;20.994;2024-03-07T05:55:45;1.80;99.90
17483;DHT22;8858;52.308;20.994;2024-03-07T05:58:17;1.80;99.90
17483;DHT22;8858;52.308;20.994;2024-03-07T06:00:47;1.80;99.90
17483;DHT22;8858;52.308;20.994;2024-03-07T06:03:16;1.90;99.90
17483;DHT22;8858;52.308;20.994;2024-03-07T06:05:47;1.90;99.90
17483;DHT22;8858;52.308;20.994;2024-03-07T06:08:18;1.90;99.90
17483;DHT22;8858;52.308;20.994;2024-03-07T06:10:47;2.00;99.90
17483;DHT22;8858;52.308;20.994;2024-03-07T06:13:18;2.00;99.90
17483;DHT22;8858;52.308;20.994;2024-03-07T06:15:50;2.00;99.90
17483;DHT22;8858;52.308;20.994;2024-03-07T06:18:20;2.00;99.90
17483;DHT22;8858;52.308;20.994;2024-03-07T06:20:48;2.00;99.90
17483;DHT22;8858;52.308;20.994;2024-03-07T06:23:18;2.00;99.90
17483;DHT22;8858;52.308;20.994;2024-03-07T06:25:47;2.10;99.90
17483;DHT22;8858;52.308;20.994;2024-03-07T06:28:20;2.10;99.90
17483;DHT22;8858;52.308;20.994;2024-03-07T06:30:49;2.10;99.90
17483;DHT22;8858;52.308;20.994;2024-03-07T06:33:18;2.20;99.90
17483;DHT22;8858;52.308;20.994;2024-03-07T06:35:51;2.20;99.90
17483;DHT22;8858;52.308;20.994;2024-03-07T06:38:23;2.20;99.90
17483;DHT22;8858;52.308;20.994;2024-03-07T06:40:51;2.30;99.90
17483;DHT22;8858;52.308;20.994;2024-03-07T06:43:20;2.40;99.90
17483;DHT22;8858;52.308;20.994;2024-03-07T06:45:55;2.40;99.90
17483;DHT22;8858;52.308;20.994;2024-03-07T06:48:23;2.40;99.90
17483;DHT22;8858;52.308;20.994;2024-03-07T06:50:51;2.50;99.90
17483;DHT22;8858;52.308;20.994;2024-03-07T06:53:20;2.50;99.90
17483;DHT22;8858;52.308;20.994;2024-03-07T06:55:55;2.60;99.90
17483;DHT22;8858;52.308;20.994;2024-03-07T06:58:24;2.60;99.90
17483;DHT22;8858;52.308;20.994;2024-03-07T07:00:55;2.60;99.90
17483;DHT22;8858;52.308;20.994;2024-03-07T07:03:30;2.70;99.90
17483;DHT22;8858;52.308;20.994;2024-03-07T07:06:00;2.70;99.90
17483;DHT22;8858;52.308;20.994;2024-03-07T07:08:28;2.80;99.90
17483;DHT22;8858;52.308;20.994;2024-03-07T07:10:59;2.80;99.90
17483;DHT22;8858;52.308;20.994;2024-03-07T07:13:27;2.90;99.90
17483;DHT22;8858;52.308;20.994;2024-03-07T07:15:56;3.00;99.90
17483;DHT22;8858;52.308;20.994;2024-03-07T07:18:25;3.00;99.90
17483;DHT22;8858;52.308;20.994;2024-03-07T07:20:53;3.10;99.90
17483;DHT22;8858;52.308;20.994;2024-03-07T07:23:23;3.20;99.90
17483;DHT22;8858;52.308;20.994;2024-03-07T07:25:52;3.20;99.90
17483;DHT22;8858;52.308;20.994;2024-03-07T07:28:28;3.30;99.90
17483;DHT22;8858;52.308;20.994;2024-03-07T07:30:57;3.40;99.90
17483;DHT22;8858;52.308;20.994;2024-03-07T07:33:25;3.40;99.90
17483;DHT22;8858;52.308;20.994;2024-03-07T07:35:54;3.50;99.90
17483;DHT22;8858;52.308;20.994;2024-03-07T07:38:22;3.50;99.90
17483;DHT22;8858;52.308;20.994;2024-03-07T07:40:56;3.60;99.90
17483;DHT22;8858;52.308;20.994;2024-03-07T07:43:26;3.70;99.90
17483;DHT22;8858;52.308;20.994;2024-03-07T07:46:10;3.70;99.90
17483;DHT22;8858;52.308;20.994;2024-03-07T07:49:04;3.80;99.90
17483;DHT22;8858;52.308;20.994;2024-03-07T07:51:32;3.90;99.90
17483;DHT22;8858;52.308;20.994;2024-03-07T07:54:25;3.90;99.90
17483;DHT22;8858;52.308;20.994;2024-03-07T07:56:54;3.90;99.90
17483;DHT22;8858;52.308;20.994;2024-03-07T07:59:23;4.00;99.90
17483;DHT22;8858;52.308;20.994;2024-03-07T08:01:52;4.00;99.90
17483;DHT22;8858;52.308;20.994;2024-03-07T08:04:24;4.10;99.90
17483;DHT22;8858;52.308;20.994;2024-03-07T08:06:52;4.20;99.90
17483;DHT22;8858;52.308;20.994;2024-03-07T08:09:21;4.20;99.90
17483;DHT22;8858;52.308;20.994;2024-03-07T08:11:49;4.30;99.90
17483;DHT22;8858;52.308;20.994;2024-03-07T08:14:20;4.30;99.90
17483;DHT22;8858;52.308;20.994;2024-03-07T08:16:55;4.40;99.90
17483;DHT22;8858;52.308;20.994;2024-03-07T08:19:24;4.40;99.90
17483;DHT22;8858;52.308;20.994;2024-03-07T08:22:01;4.50;99.90
17483;DHT22;8858;52.308;20.994;2024-03-07T08:24:31;4.50;99.90
17483;DHT22;8858;52.308;20.994;2024-03-07T08:27:00;4.60;99.90
17483;DHT22;8858;52.308;20.994;2024-03-07T08:29:30;4.60;99.90
17483;DHT22;8858;52.308;20.994;2024-03-07T08:32:02;4.70;99.90
17483;DHT22;8858;52.308;20.994;2024-03-07T08:34:30;4.70;99.90
17483;DHT22;8858;52.308;20.994;2024-03-07T08:36:59;4.80;99.90
17483;DHT22;8858;52.308;20.994;2024-03-07T08:39:29;4.80;99.90
17483;DHT22;8858;52.308;20.994;2024-03-07T08:42:00;4.90;99.90
17483;DHT22;8858;52.308;20.994;2024-03-07T08:44:32;4.90;99.90
17483;DHT22;8858;52.308;20.994;2024-03-07T08:47:03;5.00;99.90
17483;DHT22;8858;52.308;20.994;2024-03-07T08:49:31;5.00;99.90
17483;DHT22;8858;52.308;20.994;2024-03-07T08:52:04;5.10;99.90
17483;DHT22;8858;52.308;20.994;2024-03-07T08:54:34;5.10;99.90
17483;DHT22;8858;52.308;20.994;2024-03-07T08:57:03;5.10;99.90
17483;DHT22;8858;52.308;20.994;2024-03-07T08:59:35;5.10;99.90
17483;DHT22;8858;52.308;20.994;2024-03-07T09:02:04;5.20;99.90
17483;DHT22;8858;52.308;20.994;2024-03-07T09:04:33;5.20;99.90
17483;DHT22;8858;52.308;20.994;2024-03-07T09:07:02;5.30;99.90
17483;DHT22;8858;52.308;20.994;2024-03-07T09:09:30;5.30;99.90
17483;DHT22;8858;52.308;20.994;2024-03-07T09:11:59;5.40;99.90
17483;DHT22;8858;52.308;20.994;2024-03-07T09:14:29;5.40;99.90
17483;DHT22;8858;52.308;20.994;2024-03-07T09:16:57;5.40;99.90
17483;DHT22;8858;52.308;20.994;2024-03-07T09:19:27;5.50;99.90
17483;DHT22;8858;52.308;20.994;2024-03-07T09:21:55;5.50;99.90
17483;DHT22;8858;52.308;20.994;2024-03-07T09:24:23;5.60;99.90
17483;DHT22;8858;52.308;20.994;2024-03-07T09:26:52;5.70;99.90
17483;DHT22;8858;52.308;20.994;2024-03-07T09:29:27;5.70;99.90
17483;DHT22;8858;52.308;20.994;2024-03-07T09:31:56;5.70;99.90
17483;DHT22;8858;52.308;20.994;2024-03-07T09:34:25;5.80;99.90
17483;DHT22;8858;52.308;20.994;2024-03-07T09:36:54;5.80;99.90
17483;DHT22;8858;52.308;20.994;2024-03-07T09:39:22;5.80;99.90
17483;DHT22;8858;52.308;20.994;2024-03-07T09:41:55;5.90;99.90
17483;DHT22;8858;52.308;20.994;2024-03-07T09:44:26;5.90;99.90
17483;DHT22;8858;52.308;20.994;2024-03-07T09:46:56;6.00;99.90
17483;DHT22;8858;52.308;20.994;2024-03-07T09:49:25;6.00;99.90
17483;DHT22;8858;52.308;20.994;2024-03-07T09:51:58;6.00;99.90
17483;DHT22;8858;52.308;20.994;2024-03-07T09:54:28;6.10;99.90
17483;DHT22;8858;52.308;20.994;2024-03-07T09:56:59;6.10;99.90
17483;DHT22;8858;52.308;20.994;2024-03-07T09:59:34;6.20;99.90
17483;DHT22;8858;52.308;20.994;2024-03-07T10:02:05;6.20;99.90
17483;DHT22;8858;52.308;20.994;2024-03-07T10:04:43;6.30;99.90
17483;DHT22;8858;52.308;20.994;2024-03-07T10:07:14;6.30;99.90
17483;DHT22;8858;52.308;20.994;2024-03-07T10:09:44;6.30;99.90
17483;DHT22;8858;52.308;20.994;2024-03-07T10:12:12;6.40;99.90
17483;DHT22;8858;52.308;20.994;2024-03-07T10:14:48;6.40;99.90
17483;DHT22;8858;52.308;20.994;2024-03-07T10:17:18;6.50;99.90
17483;DHT22;8858;52.308;20.994;2024-03-07T10:19:47;6.50;99.90
17483;DHT22;8858;52.308;20.994;2024-03-07T10:22:17;6.60;99.90
17483;DHT22;8858;52.308;20.994;2024-03-07T10:24:51;6.70;99.90
17483;DHT22;8858;52.308;20.994;2024-03-07T10:27:25;6.70;99.90
17483;DHT22;8858;52.308;20.994;2024-03-07T10:29:54;6.70;99.90
17483;DHT22;8858;52.308;20.994;2024-03-07T10:32:23;6.80;99.90
17483;DHT22;8858;52.308;20.994;2024-03-07T10:34:53;6.90;99.90
17483;DHT22;8858;52.308;20.994;2024-03-07T10:37:23;6.90;99.90
17483;DHT22;8858;52.308;20.994;2024-03-07T10:39:53;6.90;99.90
17483;DHT22;8858;52.308;20.994;2024-03-07T10:42:24;7.10;99.90
17483;DHT22;8858;52.308;20.994;2024-03-07T10:45:04;7.10;99.90
17483;DHT22;8858;52.308;20.994;2024-03-07T10:47:38;7.20;99.90
17483;DHT22;8858;52.308;20.994;2024-03-07T10:50:17;7.30;99.90
17483;DHT22;8858;52.308;20.994;2024-03-07T10:52:58;7.30;99.90
17483;DHT22;8858;52.308;20.994;2024-03-07T10:55:33;7.30;99.90
17483;DHT22;8858;52.308;20.994;2024-03-07T10:58:20;7.40;99.90
17483;DHT22;8858;52.308;20.994;2024-03-07T11:00:59;7.50;99.90
17483;DHT22;8858;52.308;20.994;2024-03-07T11:03:31;7.50;99.90
17483;DHT22;8858;52.308;20.994;2024-03-07T11:06:00;7.50;99.90
17483;DHT22;8858;52.308;20.994;2024-03-07T11:08:35;7.60;99.90
17483;DHT22;8858;52.308;20.994;2024-03-07T11:11:05;7.60;99.90
17483;DHT22;8858;52.308;20.994;2024-03-07T11:13:37;7.70;99.90
17483;DHT22;8858;52.308;20.994;2024-03-07T11:16:06;7.80;99.90
17483;DHT22;8858;52.308;20.994;2024-03-07T11:18:38;7.80;99.90
17483;DHT22;8858;52.308;20.994;2024-03-07T11:21:07;7.90;99.90
17483;DHT22;8858;52.308;20.994;2024-03-07T11:23:37;8.00;99.90
17483;DHT22;8858;52.308;20.994;2024-03-07T11:26:12;8.00;99.90
17483;DHT22;8858;52.308;20.994;2024-03-07T11:28:42;8.10;99.90
17483;DHT22;8858;52.308;20.994;2024-03-07T11:31:25;8.20;99.90
17483;DHT22;8858;52.308;20.994;2024-03-07T11:34:14;8.30;99.90
17483;DHT22;8858;52.308;20.994;2024-03-07T11:36:46;8.40;99.90
17483;DHT22;8858;52.308;20.994;2024-03-07T11:39:40;8.50;99.90
17483;DHT22;8858;52.308;20.994;2024-03-07T11:42:19;8.60;99.90
17483;DHT22;8858;52.308;20.994;2024-03-07T11:44:49;8.60;99.90
17483;DHT22;8858;52.308;20.994;2024-03-07T11:47:18;8.70;99.90
17483;DHT22;8858;52.308;20.994;2024-03-07T11:49:47;8.80;99.90
17483;DHT22;8858;52.308;20.994;2024-03-07T11:52:16;8.90;99.90
17483;DHT22;8858;52.308;20.994;2024-03-07T11:54:45;9.00;99.90
17483;DHT22;8858;52.308;20.994;2024-03-07T11:57:18;9.00;99.90
17483;DHT22;8858;52.308;20.994;2024-03-07T11:59:53;9.00;99.90
17483;DHT22;8858;52.308;20.994;2024-03-07T12:02:21;9.10;99.90
17483;DHT22;8858;52.308;20.994;2024-03-07T12:04:52;9.20;99.90
17483;DHT22;8858;52.308;20.994;2024-03-07T12:07:21;9.40;99.90
17483;DHT22;8858;52.308;20.994;2024-03-07T12:09:51;9.40;99.90
17483;DHT22;8858;52.308;20.994;2024-03-07T12:12:23;9.60;99.90
17483;DHT22;8858;52.308;20.994;2024-03-07T12:14:55;9.70;99.90
17483;DHT22;8858;52.308;20.994;2024-03-07T12:17:25;9.80;99.90
17483;DHT22;8858;52.308;20.994;2024-03-07T12:19:57;9.80;99.90
17483;DHT22;8858;52.308;20.994;2024-03-07T12:22:32;9.90;99.90
17483;DHT22;8858;52.308;20.994;2024-03-07T12:25:03;10.00;99.90
17483;DHT22;8858;52.308;20.994;2024-03-07T12:27:36;10.10;99.90
17483;DHT22;8858;52.308;20.994;2024-03-07T12:30:15;10.20;99.90
17483;DHT22;8858;52.308;20.994;2024-03-07T12:32:48;10.20;99.90
17483;DHT22;8858;52.308;20.994;2024-03-07T12:35:17;10.30;99.90
17483;DHT22;8858;52.308;20.994;2024-03-07T12:37:46;10.40;99.90
17483;DHT22;8858;52.308;20.994;2024-03-07T12:40:16;10.50;99.90
17483;DHT22;8858;52.308;20.994;2024-03-07T12:42:47;10.60;99.90
17483;DHT22;8858;52.308;20.994;2024-03-07T12:45:17;10.60;99.90
17483;DHT22;8858;52.308;20.994;2024-03-07T12:47:46;10.70;99.90
17483;DHT22;8858;52.308;20.994;2024-03-07T12:50:20;10.80;99.90
17483;DHT22;8858;52.308;20.994;2024-03-07T12:52:49;10.80;99.90
17483;DHT22;8858;52.308;20.994;2024-03-07T12:55:19;10.90;99.90
17483;DHT22;8858;52.308;20.994;2024-03-07T12:57:48;11.00;99.90
17483;DHT22;8858;52.308;20.994;2024-03-07T13:00:18;11.00;99.90
17483;DHT22;8858;52.308;20.994;2024-03-07T13:02:47;11.10;99.90
17483;DHT22;8858;52.308;20.994;2024-03-07T13:05:15;11.10;99.90
17483;DHT22;8858;52.308;20.994;2024-03-07T13:07:49;11.20;99.90
17483;DHT22;8858;52.308;20.994;2024-03-07T13:10:19;11.20;99.90
17483;DHT22;8858;52.308;20.994;2024-03-07T13:12:47;11.20;99.90
17483;DHT22;8858;52.308;20.994;2024-03-07T13:15:20;11.20;99.90
17483;DHT22;8858;52.308;20.994;2024-03-07T13:17:49;11.30;99.90
17483;DHT22;8858;52.308;20.994;2024-03-07T13:20:22;11.30;99.90
17483;DHT22;8858;52.308;20.994;2024-03-07T13:22:53;11.40;99.90
17483;DHT22;8858;52.308;20.994;2024-03-07T13:25:26;11.40;99.90
17483;DHT22;8858;52.308;20.994;2024-03-07T13:28:01;11.50;99.90
17483;DHT22;8858;52.308;20.994;2024-03-07T13:30:30;11.50;99.90
17483;DHT22;8858;52.308;20.994;2024-03-07T13:32:59;11.60;99.90
17483;DHT22;8858;52.308;20.994;2024-03-07T13:35:27;11.60;99.90
17483;DHT22;8858;52.308;20.994;2024-03-07T13:37:58;11.70;99.90
17483;DHT22;8858;52.308;20.994;2024-03-07T13:40:28;11.70;99.90
17483;DHT22;8858;52.308;20.994;2024-03-07T13:43:00;11.80;99.90
17483;DHT22;8858;52.308;20.994;2024-03-07T13:45:29;11.80;99.90
17483;DHT22;8858;52.308;20.994;2024-03-07T13:47:59;11.80;99.90
17483;DHT22;8858;52.308;20.994;2024-03-07T13:50:28;11.80;99.90
17483;DHT22;8858;52.308;20.994;2024-03-07T13:53:17;11.80;99.90
17483;DHT22;8858;52.308;20.994;2024-03-07T13:59:20;11.80;99.90
17483;DHT22;8858;52.308;20.994;2024-03-07T14:02:01;11.70;99.90
17483;DHT22;8858;52.308;20.994;2024-03-07T14:07:53;11.50;99.90
17483;DHT22;8858;52.308;20.994;2024-03-07T14:10:53;11.50;99.90
17483;DHT22;8858;52.308;20.994;2024-03-07T14:13:42;11.40;99.90
17483;DHT22;8858;52.308;20.994;2024-03-07T14:16:40;11.20;99.90
17483;DHT22;8858;52.308;20.994;2024-03-07T14:22:33;10.80;99.90
17483;DHT22;8858;52.308;20.994;2024-03-07T14:28:16;10.60;99.90
17483;DHT22;8858;52.308;20.994;2024-03-07T14:30:52;10.40;99.90
17483;DHT22;8858;52.308;20.994;2024-03-07T14:33:31;10.30;99.90
17483;DHT22;8858;52.308;20.994;2024-03-07T14:36:05;10.20;99.90
17483;DHT22;8858;52.308;20.994;2024-03-07T14:38:46;10.10;99.90
17483;DHT22;8858;52.308;20.994;2024-03-07T14:41:18;10.00;99.90
17483;DHT22;8858;52.308;20.994;2024-03-07T14:43:50;9.90;99.90
17483;DHT22;8858;52.308;20.994;2024-03-07T14:46:20;9.80;99.90
17483;DHT22;8858;52.308;20.994;2024-03-07T14:48:49;9.80;99.90
17483;DHT22;8858;52.308;20.994;2024-03-07T14:51:19;9.70;99.90
17483;DHT22;8858;52.308;20.994;2024-03-07T14:53:48;9.70;99.90
17483;DHT22;8858;52.308;20.994;2024-03-07T14:56:16;9.60;99.90
17483;DHT22;8858;52.308;20.994;2024-03-07T14:58:47;9.50;99.90
17483;DHT22;8858;52.308;20.994;2024-03-07T15:01:16;9.50;99.90
17483;DHT22;8858;52.308;20.994;2024-03-07T15:03:48;9.40;99.90
17483;DHT22;8858;52.308;20.994;2024-03-07T15:06:16;9.30;99.90
17483;DHT22;8858;52.308;20.994;2024-03-07T15:08:50;9.30;99.90
17483;DHT22;8858;52.308;20.994;2024-03-07T15:11:25;9.20;99.90
17483;DHT22;8858;52.308;20.994;2024-03-07T15:13:55;9.20;99.90
17483;DHT22;8858;52.308;20.994;2024-03-07T15:16:23;9.10;99.90
17483;DHT22;8858;52.308;20.994;2024-03-07T15:19:04;9.10;99.90
17483;DHT22;8858;52.308;20.994;2024-03-07T15:21:34;9.00;99.90
17483;DHT22;8858;52.308;20.994;2024-03-07T15:24:06;9.00;99.90
17483;DHT22;8858;52.308;20.994;2024-03-07T15:26:35;8.90;99.90
17483;DHT22;8858;52.308;20.994;2024-03-07T15:29:03;8.90;99.90
17483;DHT22;8858;52.308;20.994;2024-03-07T15:31:32;8.90;99.90
17483;DHT22;8858;52.308;20.994;2024-03-07T15:34:00;8.80;99.90
17483;DHT22;8858;52.308;20.994;2024-03-07T15:36:32;8.80;99.90
17483;DHT22;8858;52.308;20.994;2024-03-07T15:39:01;8.80;99.90
17483;DHT22;8858;52.308;20.994;2024-03-07T15:41:47;8.70;99.90
17483;DHT22;8858;52.308;20.994;2024-03-07T15:44:19;8.70;99.90
17483;DHT22;8858;52.308;20.994;2024-03-07T15:46:49;8.60;99.90
17483;DHT22;8858;52.308;20.994;2024-03-07T15:49:18;8.60;99.90
17483;DHT22;8858;52.308;20.994;2024-03-07T15:51:48;8.50;99.90
17483;DHT22;8858;52.308;20.994;2024-03-07T15:54:17;8.50;99.90
17483;DHT22;8858;52.308;20.994;2024-03-07T15:56:47;8.50;99.90
17483;DHT22;8858;52.308;20.994;2024-03-07T15:59:16;8.40;99.90
17483;DHT22;8858;52.308;20.994;2024-03-07T16:01:45;8.40;99.90
17483;DHT22;8858;52.308;20.994;2024-03-07T16:04:13;8.30;99.90
17483;DHT22;8858;52.308;20.994;2024-03-07T16:06:43;8.30;99.90
17483;DHT22;8858;52.308;20.994;2024-03-07T16:09:15;8.20;99.90
17483;DHT22;8858;52.308;20.994;2024-03-07T16:11:49;8.20;99.90
17483;DHT22;8858;52.308;20.994;2024-03-07T16:14:24;8.10;99.90
17483;DHT22;8858;52.308;20.994;2024-03-07T16:16:53;8.10;99.90
17483;DHT22;8858;52.308;20.994;2024-03-07T16:19:22;8.00;99.90
17483;DHT22;8858;52.308;20.994;2024-03-07T16:21:50;8.00;99.90